Artvin — 9HA2782 — position and weather

sailwx.info

Track history (hours):
 
Tides and Currents Weather Stations Pressure Air Temp Water Temp Dewpoint Dewpoint Depression Visibility Wind Speed Wind Dir Waves Ship Positions

Artvin

Last reported at 2014-Sep-30 01:23 UTC. Time now 2014-Oct-01 22:29 UTC.
Position N 59°57' E 027°01'.

Length 229 m; draft 9.3 m.

Type: Cargo ship. MMSI: 215678000.

Date/timePositionNaut miles runAvg speedWind from/ knotsBaromVisibWave heightAir tempDewpointWater temp
2014-Sep-30 01:23N 59°57' E 027°01'1113.8
2014-Sep-30 00:34N 59°59' E 026°38'5614.0
2014-Sep-29 20:33N 59°46' E 024°49'1414.2
2014-Sep-29 19:33N 59°43' E 024°21'1413.9
2014-Sep-29 18:32N 59°38' E 023°55'1414.2
2014-Sep-29 17:32N 59°34' E 023°28'1414.0
2014-Sep-29 16:32N 59°30' E 023°02'22313.8
2014-Sep-29 00:22N 56°44' E 018°19'7113.9
2014-Sep-28 19:15N 55°60' E 016°38'3913.9
2014-Sep-28 16:29N 55°40' E 015°39'1314.3
2014-Sep-28 15:33N 55°33' E 015°20'1514.7
2014-Sep-28 14:33N 55°28' E 014°55'1414.3
2014-Sep-28 13:33N 55°21' E 014°34'1414.2
2014-Sep-28 12:33N 55°10' E 014°16'1414.2
2014-Sep-28 11:33N 55°11' E 013°51'1414.3
2014-Sep-28 10:33N 55°11' E 013°26'1414.3
2014-Sep-28 09:33N 55°13' E 013°01'1414.0
2014-Sep-28 08:33N 55°18' E 012°38'1313.0
2014-Sep-28 07:33N 55°31' E 012°42'8 7.6
2014-Sep-28 06:33N 55°38' E 012°42'1212.4
2014-Sep-28 05:33N 55°51' E 012°41'1212.3
2014-Sep-28 04:33N 56°03' E 012°39'9 9.2
2014-Sep-28 03:33N 56°09' E 012°26'7 6.7
2014-Sep-28 02:33N 56°12' E 012°16'9 8.8
2014-Sep-28 01:33N 56°18' E 012°03'1211.6
2014-Sep-28 00:32N 56°29' E 011°58'1111.5
2014-Sep-27 23:33N 56°40' E 011°55'1110.8
2014-Sep-27 22:33N 56°51' E 011°49'2412.0
2014-Sep-27 20:33N 57°13' E 011°34'1413.6
2014-Sep-27 19:34N 57°26' E 011°25'1313.3
2014-Sep-27 18:33N 57°35' E 011°07'1414.1
2014-Sep-27 17:33N 57°45' E 010°49'1414.0
2014-Sep-27 16:34N 57°48' E 010°23'191 8.7
2014-Sep-26 18:33N 55°29' E 006°26'10 9.5
2014-Sep-26 17:32N 55°20' E 006°19'10112.0
2014-Sep-26 09:06N 53°39' E 006°22'5 8.6
2014-Sep-26 08:33N 53°37' E 006°29'10 9.6
2014-Sep-26 07:33N 53°32' E 006°43'7 7.2
2014-Sep-26 06:33N 53°27' E 006°51'0 0.2
2014-Sep-26 05:31N 53°27' E 006°51'0 0.0
2014-Sep-26 04:31N 53°27' E 006°51'0 0.0
2014-Sep-26 03:31N 53°27' E 006°51'0 0.0
2014-Sep-26 02:31N 53°27' E 006°51'0 0.0
2014-Sep-26 01:31N 53°27' E 006°51'0 0.0
2014-Sep-26 00:34N 53°27' E 006°51'0 0.0
2014-Sep-25 23:31N 53°27' E 006°51'0 0.0
2014-Sep-25 22:31N 53°27' E 006°51'0 0.0
2014-Sep-25 21:31N 53°27' E 006°51'0 0.0
2014-Sep-25 20:31N 53°27' E 006°51'0 0.0
2014-Sep-25 19:28N 53°27' E 006°51'0 0.0
2014-Sep-25 18:31N 53°27' E 006°51'0 0.0
2014-Sep-25 17:31N 53°27' E 006°51'0 0.0
2014-Sep-25 16:31N 53°27' E 006°51'0 0.0
2014-Sep-25 15:31N 53°27' E 006°51'0 0.0
2014-Sep-25 14:31N 53°27' E 006°51'0 0.0
2014-Sep-25 13:31N 53°27' E 006°51'0 0.0
2014-Sep-25 12:31N 53°27' E 006°51'0 0.0
2014-Sep-25 11:31N 53°27' E 006°51'0 0.0
2014-Sep-25 10:31N 53°27' E 006°51'0 0.0
2014-Sep-25 09:34N 53°27' E 006°51'0 0.0
2014-Sep-25 08:31N 53°27' E 006°51'0 0.0
2014-Sep-25 07:31N 53°27' E 006°51'0 0.0
2014-Sep-25 06:34N 53°27' E 006°51'0 0.0
2014-Sep-25 05:34N 53°27' E 006°51'0 0.0
2014-Sep-25 04:31N 53°27' E 006°51'0 0.0
2014-Sep-25 03:34N 53°27' E 006°51'0 0.0
2014-Sep-25 02:31N 53°27' E 006°51'0 0.0
2014-Sep-25 01:34N 53°27' E 006°51'0 0.0
2014-Sep-25 00:34N 53°27' E 006°51'0 0.0
2014-Sep-24 23:33N 53°27' E 006°51'0 0.0
2014-Sep-24 22:33N 53°27' E 006°51'0 0.0
2014-Sep-24 21:33N 53°27' E 006°51'0 0.0
2014-Sep-24 20:33N 53°27' E 006°51'0 0.0
2014-Sep-24 19:33N 53°27' E 006°51'0 0.0
2014-Sep-24 18:30N 53°27' E 006°51'0 0.0
2014-Sep-24 17:33N 53°27' E 006°51'0 0.0
2014-Sep-24 16:34N 53°27' E 006°51'0 0.0
2014-Sep-24 15:33N 53°27' E 006°51'0 0.0
2014-Sep-24 14:33N 53°27' E 006°51'0 0.0
2014-Sep-24 13:33N 53°27' E 006°51'0 0.0
2014-Sep-24 12:33N 53°27' E 006°51'0 0.0
2014-Sep-24 11:33N 53°27' E 006°51'0 0.0
2014-Sep-24 10:33N 53°27' E 006°51'0 0.0
2014-Sep-24 09:33N 53°27' E 006°51'0 0.0
2014-Sep-24 08:33N 53°27' E 006°51'0 0.0
2014-Sep-24 07:33N 53°27' E 006°51'0 0.0
2014-Sep-24 06:33N 53°27' E 006°51'0 0.0
2014-Sep-24 05:33N 53°27' E 006°51'0 0.0
2014-Sep-24 04:33N 53°27' E 006°51'0 0.0
2014-Sep-24 03:33N 53°27' E 006°51'0 0.0
2014-Sep-24 02:33N 53°27' E 006°51'0 0.0
2014-Sep-24 01:33N 53°27' E 006°51'0 0.0
2014-Sep-24 00:33N 53°27' E 006°51'0 0.0
2014-Sep-23 23:33N 53°27' E 006°51'0 0.0
2014-Sep-23 22:33N 53°27' E 006°51'0 0.0
2014-Sep-23 21:33N 53°27' E 006°51'0 0.0
2014-Sep-23 20:33N 53°27' E 006°51'0 0.0
2014-Sep-23 19:33N 53°27' E 006°51'0 0.0
2014-Sep-23 18:33N 53°27' E 006°51'0 0.0
2014-Sep-23 17:33N 53°27' E 006°51'0 0.0
2014-Sep-23 16:33N 53°27' E 006°51'0 0.0
2014-Sep-23 15:33N 53°27' E 006°51'0 0.0
2014-Sep-23 14:33N 53°27' E 006°51'0 0.0
2014-Sep-23 13:33N 53°27' E 006°51'0 0.0
2014-Sep-23 12:33N 53°27' E 006°51'0 0.0
2014-Sep-23 11:33N 53°27' E 006°51'0 0.3
2014-Sep-23 10:33N 53°27' E 006°51'5 4.8
2014-Sep-23 09:33N 53°31' E 006°47'6 6.5
2014-Sep-23 08:33N 53°35' E 006°38'10 9.9
2014-Sep-23 07:33N 53°37' E 006°22'2 2.2
2014-Sep-23 06:33N 53°37' E 006°18'2 1.9
2014-Sep-23 05:32N 53°36' E 006°16'0 0.1
2014-Sep-23 04:32N 53°36' E 006°16'0 0.1
2014-Sep-23 03:32N 53°36' E 006°16'0 0.1
2014-Sep-23 02:32N 53°36' E 006°15'0 0.0
2014-Sep-23 01:29N 53°36' E 006°15'0 0.0
2014-Sep-23 00:32N 53°36' E 006°15'0 0.1
2014-Sep-22 23:32N 53°36' E 006°16'0 0.1
2014-Sep-22 22:08N 53°36' E 006°16'0 0.0
2014-Sep-22 21:05N 53°36' E 006°16'0 0.1
2014-Sep-22 20:26N 53°36' E 006°16'0 0.0
2014-Sep-22 19:29N 53°36' E 006°16'0 0.0
2014-Sep-22 18:17N 53°36' E 006°16'0 0.1
2014-Sep-22 16:08N 53°36' E 006°16'0 0.1
2014-Sep-22 15:29N 53°36' E 006°16'0 0.1
2014-Sep-22 14:32N 53°36' E 006°16'2 2.2
2014-Sep-22 13:33N 53°36' E 006°12'5 4.8
2014-Sep-22 12:33N 53°38' E 006°05'2 2.0
2014-Sep-22 11:27N 53°38' E 006°08'2 2.0
2014-Sep-22 10:33N 53°38' E 006°11'2 1.5
2014-Sep-22 09:33N 53°38' E 006°14'1 0.6
2014-Sep-22 08:33N 53°38' E 006°15'1 1.0
2014-Sep-22 07:33N 53°37' E 006°16'2 2.5
2014-Sep-22 06:33N 53°39' E 006°14'10 9.5
2014-Sep-22 05:33N 53°41' E 005°58'1110.7
2014-Sep-22 04:33N 53°38' E 005°41'1111.5
2014-Sep-22 03:33N 53°34' E 005°23'1111.2
2014-Sep-22 02:33N 53°30' E 005°06'1111.3
2014-Sep-22 01:33N 53°26' E 004°48'1611.2
2014-Sep-22 00:09N 53°12' E 004°34'711.5
2014-Sep-21 23:33N 53°07' E 004°28'1111.0
2014-Sep-21 22:33N 52°57' E 004°19'1111.5
2014-Sep-21 21:33N 52°47' E 004°10'1111.0
2014-Sep-21 20:33N 52°36' E 004°05'1010.0
2014-Sep-21 19:33N 52°30' E 004°18'9 9.5
2014-Sep-21 18:34N 52°28' E 004°33'3 3.2
2014-Sep-21 17:34N 52°28' E 004°38'7 6.7
2014-Sep-21 16:34N 52°25' E 004°49'1 0.7
2014-Sep-21 15:32N 52°25' E 004°49'0 0.0
2014-Sep-21 14:32N 52°25' E 004°49'0 0.0
2014-Sep-21 13:32N 52°25' E 004°49'0 0.0
2014-Sep-21 12:32N 52°25' E 004°49'0 0.0
2014-Sep-21 11:32N 52°25' E 004°49'0 0.0
2014-Sep-21 10:32N 52°25' E 004°49'0 0.0
2014-Sep-21 09:32N 52°25' E 004°49'0 0.0
2014-Sep-21 08:32N 52°25' E 004°49'0 0.0
2014-Sep-21 07:32N 52°25' E 004°49'0 0.0
2014-Sep-21 06:31N 52°25' E 004°49'0 0.0
2014-Sep-21 05:32N 52°25' E 004°49'0 0.0
2014-Sep-21 04:32N 52°25' E 004°49'0 0.0
2014-Sep-21 03:31N 52°25' E 004°49'0 0.0
2014-Sep-21 02:32N 52°25' E 004°49'0 0.0
2014-Sep-21 01:32N 52°25' E 004°49'0 0.0
2014-Sep-21 00:31N 52°25' E 004°49'0 0.0
2014-Sep-20 23:32N 52°25' E 004°49'0 0.0
2014-Sep-20 22:31N 52°25' E 004°49'0 0.0
2014-Sep-20 21:31N 52°25' E 004°49'0 0.0
2014-Sep-20 20:32N 52°25' E 004°49'0 0.0
2014-Sep-20 19:31N 52°25' E 004°49'0 0.0
2014-Sep-20 18:31N 52°25' E 004°49'0 0.0
2014-Sep-20 17:31N 52°25' E 004°49'0 0.0
2014-Sep-20 16:32N 52°25' E 004°49'0 0.0
2014-Sep-20 15:31N 52°25' E 004°49'0 0.0
2014-Sep-20 14:31N 52°25' E 004°49'0 0.0
2014-Sep-20 13:31N 52°25' E 004°49'0 0.0
2014-Sep-20 12:31N 52°25' E 004°49'0 0.0
2014-Sep-20 11:31N 52°25' E 004°49'0 0.0
2014-Sep-20 10:31N 52°25' E 004°49'0 0.0
2014-Sep-20 09:31N 52°25' E 004°49'0 0.0
2014-Sep-20 08:31N 52°25' E 004°49'0 0.0
2014-Sep-20 07:31N 52°25' E 004°49'0 0.0
2014-Sep-20 06:31N 52°25' E 004°49'0 0.0
2014-Sep-20 05:31N 52°25' E 004°49'0 0.0
2014-Sep-20 04:31N 52°25' E 004°49'0 0.0
2014-Sep-20 03:31N 52°25' E 004°49'0 0.0
2014-Sep-20 02:31N 52°25' E 004°49'0 0.0
2014-Sep-20 01:31N 52°25' E 004°49'  
Track history (hours):
 
Tides and Currents Weather Stations Pressure Air Temp Water Temp Dewpoint Dewpoint Depression Visibility Wind Speed Wind Dir Waves Ship Positions

Artvin

Last reported at 2014-Sep-30 01:23 UTC. Time now 2014-Oct-01 22:29 UTC.
Position N 59°57' E 027°01'.

Length 229 m; draft 9.3 m.

Type: Cargo ship. MMSI: 215678000.

Date/timePositionNaut miles runAvg speedWind from/ knotsBaromVisibWave heightAir tempDewpointWater temp
2014-Sep-30 01:23N 59°57' E 027°01'1113.8
2014-Sep-30 00:34N 59°59' E 026°38'5614.0
2014-Sep-29 20:33N 59°46' E 024°49'1414.2
2014-Sep-29 19:33N 59°43' E 024°21'1413.9
2014-Sep-29 18:32N 59°38' E 023°55'1414.2
2014-Sep-29 17:32N 59°34' E 023°28'1414.0
2014-Sep-29 16:32N 59°30' E 023°02'22313.8
2014-Sep-29 00:22N 56°44' E 018°19'7113.9
2014-Sep-28 19:15N 55°60' E 016°38'3913.9
2014-Sep-28 16:29N 55°40' E 015°39'1314.3
2014-Sep-28 15:33N 55°33' E 015°20'1514.7
2014-Sep-28 14:33N 55°28' E 014°55'1414.3
2014-Sep-28 13:33N 55°21' E 014°34'1414.2
2014-Sep-28 12:33N 55°10' E 014°16'1414.2
2014-Sep-28 11:33N 55°11' E 013°51'1414.3
2014-Sep-28 10:33N 55°11' E 013°26'1414.3
2014-Sep-28 09:33N 55°13' E 013°01'1414.0
2014-Sep-28 08:33N 55°18' E 012°38'1313.0
2014-Sep-28 07:33N 55°31' E 012°42'8 7.6
2014-Sep-28 06:33N 55°38' E 012°42'1212.4
2014-Sep-28 05:33N 55°51' E 012°41'1212.3
2014-Sep-28 04:33N 56°03' E 012°39'9 9.2
2014-Sep-28 03:33N 56°09' E 012°26'7 6.7
2014-Sep-28 02:33N 56°12' E 012°16'9 8.8
2014-Sep-28 01:33N 56°18' E 012°03'1211.6
2014-Sep-28 00:32N 56°29' E 011°58'1111.5
2014-Sep-27 23:33N 56°40' E 011°55'1110.8
2014-Sep-27 22:33N 56°51' E 011°49'2412.0
2014-Sep-27 20:33N 57°13' E 011°34'1413.6
2014-Sep-27 19:34N 57°26' E 011°25'1313.3
2014-Sep-27 18:33N 57°35' E 011°07'1414.1
2014-Sep-27 17:33N 57°45' E 010°49'1414.0
2014-Sep-27 16:34N 57°48' E 010°23'191 8.7
2014-Sep-26 18:33N 55°29' E 006°26'10 9.5
2014-Sep-26 17:32N 55°20' E 006°19'10112.0
2014-Sep-26 09:06N 53°39' E 006°22'5 8.6
2014-Sep-26 08:33N 53°37' E 006°29'10 9.6
2014-Sep-26 07:33N 53°32' E 006°43'7 7.2
2014-Sep-26 06:33N 53°27' E 006°51'0 0.2
2014-Sep-26 05:31N 53°27' E 006°51'0 0.0
2014-Sep-26 04:31N 53°27' E 006°51'0 0.0
2014-Sep-26 03:31N 53°27' E 006°51'0 0.0
2014-Sep-26 02:31N 53°27' E 006°51'0 0.0
2014-Sep-26 01:31N 53°27' E 006°51'0 0.0
2014-Sep-26 00:34N 53°27' E 006°51'0 0.0
2014-Sep-25 23:31N 53°27' E 006°51'0 0.0
2014-Sep-25 22:31N 53°27' E 006°51'0 0.0
2014-Sep-25 21:31N 53°27' E 006°51'0 0.0
2014-Sep-25 20:31N 53°27' E 006°51'0 0.0
2014-Sep-25 19:28N 53°27' E 006°51'0 0.0
2014-Sep-25 18:31N 53°27' E 006°51'0 0.0
2014-Sep-25 17:31N 53°27' E 006°51'0 0.0
2014-Sep-25 16:31N 53°27' E 006°51'0 0.0
2014-Sep-25 15:31N 53°27' E 006°51'0 0.0
2014-Sep-25 14:31N 53°27' E 006°51'0 0.0
2014-Sep-25 13:31N 53°27' E 006°51'0 0.0
2014-Sep-25 12:31N 53°27' E 006°51'0 0.0
2014-Sep-25 11:31N 53°27' E 006°51'0 0.0
2014-Sep-25 10:31N 53°27' E 006°51'0 0.0
2014-Sep-25 09:34N 53°27' E 006°51'0 0.0
2014-Sep-25 08:31N 53°27' E 006°51'0 0.0
2014-Sep-25 07:31N 53°27' E 006°51'0 0.0
2014-Sep-25 06:34N 53°27' E 006°51'0 0.0
2014-Sep-25 05:34N 53°27' E 006°51'0 0.0
2014-Sep-25 04:31N 53°27' E 006°51'0 0.0
2014-Sep-25 03:34N 53°27' E 006°51'0 0.0
2014-Sep-25 02:31N 53°27' E 006°51'0 0.0
2014-Sep-25 01:34N 53°27' E 006°51'0 0.0
2014-Sep-25 00:34N 53°27' E 006°51'0 0.0
2014-Sep-24 23:33N 53°27' E 006°51'0 0.0
2014-Sep-24 22:33N 53°27' E 006°51'0 0.0
2014-Sep-24 21:33N 53°27' E 006°51'0 0.0
2014-Sep-24 20:33N 53°27' E 006°51'0 0.0
2014-Sep-24 19:33N 53°27' E 006°51'0 0.0
2014-Sep-24 18:30N 53°27' E 006°51'0 0.0
2014-Sep-24 17:33N 53°27' E 006°51'0 0.0
2014-Sep-24 16:34N 53°27' E 006°51'0 0.0
2014-Sep-24 15:33N 53°27' E 006°51'0 0.0
2014-Sep-24 14:33N 53°27' E 006°51'0 0.0
2014-Sep-24 13:33N 53°27' E 006°51'0 0.0
2014-Sep-24 12:33N 53°27' E 006°51'0 0.0
2014-Sep-24 11:33N 53°27' E 006°51'0 0.0
2014-Sep-24 10:33N 53°27' E 006°51'0 0.0
2014-Sep-24 09:33N 53°27' E 006°51'0 0.0
2014-Sep-24 08:33N 53°27' E 006°51'0 0.0
2014-Sep-24 07:33N 53°27' E 006°51'0 0.0
2014-Sep-24 06:33N 53°27' E 006°51'0 0.0
2014-Sep-24 05:33N 53°27' E 006°51'0 0.0
2014-Sep-24 04:33N 53°27' E 006°51'0 0.0
2014-Sep-24 03:33N 53°27' E 006°51'0 0.0
2014-Sep-24 02:33N 53°27' E 006°51'0 0.0
2014-Sep-24 01:33N 53°27' E 006°51'0 0.0
2014-Sep-24 00:33N 53°27' E 006°51'0 0.0
2014-Sep-23 23:33N 53°27' E 006°51'0 0.0
2014-Sep-23 22:33N 53°27' E 006°51'0 0.0
2014-Sep-23 21:33N 53°27' E 006°51'0 0.0
2014-Sep-23 20:33N 53°27' E 006°51'0 0.0
2014-Sep-23 19:33N 53°27' E 006°51'0 0.0
2014-Sep-23 18:33N 53°27' E 006°51'0 0.0
2014-Sep-23 17:33N 53°27' E 006°51'0 0.0
2014-Sep-23 16:33N 53°27' E 006°51'0 0.0
2014-Sep-23 15:33N 53°27' E 006°51'0 0.0
2014-Sep-23 14:33N 53°27' E 006°51'0 0.0
2014-Sep-23 13:33N 53°27' E 006°51'0 0.0
2014-Sep-23 12:33N 53°27' E 006°51'0 0.0
2014-Sep-23 11:33N 53°27' E 006°51'0 0.3
2014-Sep-23 10:33N 53°27' E 006°51'5 4.8
2014-Sep-23 09:33N 53°31' E 006°47'6 6.5
2014-Sep-23 08:33N 53°35' E 006°38'10 9.9
2014-Sep-23 07:33N 53°37' E 006°22'2 2.2
2014-Sep-23 06:33N 53°37' E 006°18'2 1.9
2014-Sep-23 05:32N 53°36' E 006°16'0 0.1
2014-Sep-23 04:32N 53°36' E 006°16'0 0.1
2014-Sep-23 03:32N 53°36' E 006°16'0 0.1
2014-Sep-23 02:32N 53°36' E 006°15'0 0.0
2014-Sep-23 01:29N 53°36' E 006°15'0 0.0
2014-Sep-23 00:32N 53°36' E 006°15'0 0.1
2014-Sep-22 23:32N 53°36' E 006°16'0 0.1
2014-Sep-22 22:08N 53°36' E 006°16'0 0.0
2014-Sep-22 21:05N 53°36' E 006°16'0 0.1
2014-Sep-22 20:26N 53°36' E 006°16'0 0.0
2014-Sep-22 19:29N 53°36' E 006°16'0 0.0
2014-Sep-22 18:17N 53°36' E 006°16'0 0.1
2014-Sep-22 16:08N 53°36' E 006°16'0 0.1
2014-Sep-22 15:29N 53°36' E 006°16'0 0.1
2014-Sep-22 14:32N 53°36' E 006°16'2 2.2
2014-Sep-22 13:33N 53°36' E 006°12'5 4.8
2014-Sep-22 12:33N 53°38' E 006°05'2 2.0
2014-Sep-22 11:27N 53°38' E 006°08'2 2.0
2014-Sep-22 10:33N 53°38' E 006°11'2 1.5
2014-Sep-22 09:33N 53°38' E 006°14'1 0.6
2014-Sep-22 08:33N 53°38' E 006°15'1 1.0
2014-Sep-22 07:33N 53°37' E 006°16'2 2.5
2014-Sep-22 06:33N 53°39' E 006°14'10 9.5
2014-Sep-22 05:33N 53°41' E 005°58'1110.7
2014-Sep-22 04:33N 53°38' E 005°41'1111.5
2014-Sep-22 03:33N 53°34' E 005°23'1111.2
2014-Sep-22 02:33N 53°30' E 005°06'1111.3
2014-Sep-22 01:33N 53°26' E 004°48'1611.2
2014-Sep-22 00:09N 53°12' E 004°34'711.5
2014-Sep-21 23:33N 53°07' E 004°28'1111.0
2014-Sep-21 22:33N 52°57' E 004°19'1111.5
2014-Sep-21 21:33N 52°47' E 004°10'1111.0
2014-Sep-21 20:33N 52°36' E 004°05'1010.0
2014-Sep-21 19:33N 52°30' E 004°18'9 9.5
2014-Sep-21 18:34N 52°28' E 004°33'3 3.2
2014-Sep-21 17:34N 52°28' E 004°38'7 6.7
2014-Sep-21 16:34N 52°25' E 004°49'1 0.7
2014-Sep-21 15:32N 52°25' E 004°49'0 0.0
2014-Sep-21 14:32N 52°25' E 004°49'0 0.0
2014-Sep-21 13:32N 52°25' E 004°49'0 0.0
2014-Sep-21 12:32N 52°25' E 004°49'0 0.0
2014-Sep-21 11:32N 52°25' E 004°49'0 0.0
2014-Sep-21 10:32N 52°25' E 004°49'0 0.0
2014-Sep-21 09:32N 52°25' E 004°49'0 0.0
2014-Sep-21 08:32N 52°25' E 004°49'0 0.0
2014-Sep-21 07:32N 52°25' E 004°49'0 0.0
2014-Sep-21 06:31N 52°25' E 004°49'0 0.0
2014-Sep-21 05:32N 52°25' E 004°49'0 0.0
2014-Sep-21 04:32N 52°25' E 004°49'0 0.0
2014-Sep-21 03:31N 52°25' E 004°49'0 0.0
2014-Sep-21 02:32N 52°25' E 004°49'0 0.0
2014-Sep-21 01:32N 52°25' E 004°49'0 0.0
2014-Sep-21 00:31N 52°25' E 004°49'0 0.0
2014-Sep-20 23:32N 52°25' E 004°49'0 0.0
2014-Sep-20 22:31N 52°25' E 004°49'0 0.0
2014-Sep-20 21:31N 52°25' E 004°49'0 0.0
2014-Sep-20 20:32N 52°25' E 004°49'0 0.0
2014-Sep-20 19:31N 52°25' E 004°49'0 0.0
2014-Sep-20 18:31N 52°25' E 004°49'0 0.0
2014-Sep-20 17:31N 52°25' E 004°49'0 0.0
2014-Sep-20 16:32N 52°25' E 004°49'0 0.0
2014-Sep-20 15:31N 52°25' E 004°49'0 0.0
2014-Sep-20 14:31N 52°25' E 004°49'0 0.0
2014-Sep-20 13:31N 52°25' E 004°49'0 0.0
2014-Sep-20 12:31N 52°25' E 004°49'0 0.0
2014-Sep-20 11:31N 52°25' E 004°49'0 0.0
2014-Sep-20 10:31N 52°25' E 004°49'0 0.0
2014-Sep-20 09:31N 52°25' E 004°49'0 0.0
2014-Sep-20 08:31N 52°25' E 004°49'0 0.0
2014-Sep-20 07:31N 52°25' E 004°49'0 0.0
2014-Sep-20 06:31N 52°25' E 004°49'0 0.0
2014-Sep-20 05:31N 52°25' E 004°49'0 0.0
2014-Sep-20 04:31N 52°25' E 004°49'0 0.0
2014-Sep-20 03:31N 52°25' E 004°49'0 0.0
2014-Sep-20 02:31N 52°25' E 004°49'0 0.0
2014-Sep-20 01:31N 52°25' E 004°49'  

Dump ship's entire track history